Ward Cove, Alaska
Current Conditions -  °F | °C
As of 12:53 PM on Sunday 23 Nov 2014 (Local Time) from PAKT Reporting Station
Overcast Overcast  
Wind Chill: 40°   Ceiling: 4500
Heat Index: 44°   Visibility: 10mi
Dew Point: 42°   Wind: 7mph
Humidity: 93%   Direction: 140°SE
Pressure: 29.87"   Gusts: NA
Location:  55.4°N, 131.74°W
Report Text: PAKT 232153Z 14006KT 10SM SCT010 BKN045 OVC055 07/06 A2987 RMK AO2 RAB2058E39 SLP115 P0001 T00670056
Loading
Personal Weather Stations






























Interactive Weather Map New forecast layout! Learn more

10-Day Weather Forecast

Advertisements
Track Severe Weather on mobile